PWSweather.com
Personal Weather Stations
Station Observations
SHAHALMS1
Eftra, Falkenberg, HA

EftraFalkenberg, HA

Lat: 56.85, Lon: 12.65

Elevation: 140

Station Type:

http://hem.passagen.se/risarp101

High Low Average
Temperature 64.2°F17.9°C 53.4°F11.9°C 59.4°F15.2°C
Dew Point 53.9°F12.2°C 47.7°F8.7°C 50.3°F10.2°C
Winds 14.6 mph 23.5 kmh Calm Calm 8.0 mph SSW12.9 kmh SSW
Wind Gusts 46.2 mph74.4 kmh -- 20.0 mph32.2 kmh
Humidity 81% 61% 72%
Pressure 30.01 in1016.3 mb 29.77 in1008.1 mb -
Precipitation 0.00 in0.0 mm - -
Hour Temp Dew Point Humidity Winds Wind Gusts Pressure Precip Precip Rate Daily Precip Total
12:00 AM 56.7°F13.7°C 49.9°F9.9°C 78% 5.3 mph S8.5 kmh S 15.0 mph24.1 kmh 29.80 in1009.1 mb 0.00 in0.0 mm 0.00 in0.0 mm 0.00 in0.0 mm
12:10 AM 56.5°F13.6°C 49.7°F9.8°C 78% 4.8 mph S7.7 kmh S 19.3 mph31.1 kmh 29.80 in1009.1 mb 0.00 in0.0 mm 0.00 in0.0 mm 0.00 in0.0 mm
12:20 AM 56.5°F13.6°C 50.0°F10.0°C 79% 5.7 mph S9.2 kmh S 16.5 mph26.6 kmh 29.77 in1008.1 mb 0.00 in0.0 mm 0.00 in0.0 mm 0.00 in0.0 mm
12:30 AM 56.1°F13.4°C 49.7°F9.8°C 79% 4.9 mph S7.9 kmh S 15.4 mph24.8 kmh 29.80 in1009.1 mb 0.00 in0.0 mm 0.00 in0.0 mm 0.00 in0.0 mm
12:40 AM 55.9°F13.3°C 49.9°F9.9°C 80% 4.7 mph S7.6 kmh S 12.2 mph19.6 kmh 29.80 in1009.1 mb 0.00 in0.0 mm 0.00 in0.0 mm 0.00 in0.0 mm
12:50 AM 56.1°F13.4°C 50.0°F10.0°C 80% 6.2 mph S10.0 kmh S 17.2 mph27.7 kmh 29.80 in1009.1 mb 0.00 in0.0 mm 0.00 in0.0 mm 0.00 in0.0 mm
01:00 AM 56.7°F13.7°C 50.6°F10.3°C 80% 7.3 mph S11.7 kmh S 22.5 mph36.2 kmh 29.80 in1009.1 mb 0.00 in0.0 mm 0.00 in0.0 mm 0.00 in0.0 mm
01:10 AM 57.0°F13.9°C 50.2°F10.1°C 78% 8.3 mph S13.4 kmh S 23.6 mph38.0 kmh 29.80 in1009.1 mb 0.00 in0.0 mm 0.00 in0.0 mm 0.00 in0.0 mm
01:20 AM 57.2°F14.0°C 49.3°F9.6°C 75% 9.8 mph S15.8 kmh S 25.4 mph40.9 kmh 29.83 in1010.2 mb 0.00 in0.0 mm 0.00 in0.0 mm 0.00 in0.0 mm
01:30 AM 57.2°F14.0°C 49.0°F9.4°C 74% 9.6 mph S15.4 kmh S 21.1 mph34.0 kmh 29.83 in1010.2 mb 0.00 in0.0 mm 0.00 in0.0 mm 0.00 in0.0 mm
01:40 AM 57.2°F14.0°C 49.3°F9.6°C 75% 7.6 mph S12.2 kmh S 16.5 mph26.6 kmh 29.83 in1010.2 mb 0.00 in0.0 mm 0.00 in0.0 mm 0.00 in0.0 mm
01:50 AM 57.6°F14.2°C 49.7°F9.8°C 75% 9.9 mph S15.9 kmh S 26.8 mph43.1 kmh 29.80 in1009.1 mb 0.00 in0.0 mm 0.00 in0.0 mm 0.00 in0.0 mm
02:00 AM 57.6°F14.2°C 49.3°F9.6°C 74% 10.4 mph S16.7 kmh S 20.0 mph32.2 kmh 29.83 in1010.2 mb 0.00 in0.0 mm 0.00 in0.0 mm 0.00 in0.0 mm
02:10 AM 57.4°F14.1°C 49.2°F9.6°C 74% 8.4 mph S13.5 kmh S 20.4 mph32.8 kmh 29.83 in1010.2 mb 0.00 in0.0 mm 0.00 in0.0 mm 0.00 in0.0 mm
02:20 AM 57.2°F14.0°C 49.0°F9.4°C 74% 7.3 mph S11.7 kmh S 18.3 mph29.5 kmh 29.80 in1009.1 mb 0.00 in0.0 mm 0.00 in0.0 mm 0.00 in0.0 mm
02:30 AM 57.2°F14.0°C 49.0°F9.4°C 74% 8.2 mph S13.2 kmh S 20.8 mph33.5 kmh 29.80 in1009.1 mb 0.00 in0.0 mm 0.00 in0.0 mm 0.00 in0.0 mm
02:40 AM 57.2°F14.0°C 49.3°F9.6°C 75% 7.1 mph S11.4 kmh S 20.0 mph32.2 kmh 29.80 in1009.1 mb 0.00 in0.0 mm 0.00 in0.0 mm 0.00 in0.0 mm
02:50 AM 57.0°F13.9°C 49.2°F9.6°C 75% 6.6 mph S10.6 kmh S 19.0 mph30.6 kmh 29.83 in1010.2 mb 0.00 in0.0 mm 0.00 in0.0 mm 0.00 in0.0 mm
03:00 AM 56.8°F13.8°C 49.0°F9.4°C 75% 5.8 mph S9.3 kmh S 16.1 mph25.9 kmh 29.80 in1009.1 mb 0.00 in0.0 mm 0.00 in0.0 mm 0.00 in0.0 mm
03:10 AM 57.0°F13.9°C 49.2°F9.6°C 75% 9.5 mph S15.3 kmh S 28.6 mph46.0 kmh 29.80 in1009.1 mb 0.00 in0.0 mm 0.00 in0.0 mm 0.00 in0.0 mm
03:20 AM 57.2°F14.0°C 49.3°F9.6°C 75% 8.2 mph S13.2 kmh S 17.5 mph28.2 kmh 29.80 in1009.1 mb 0.00 in0.0 mm 0.00 in0.0 mm 0.00 in0.0 mm
03:30 AM 57.0°F13.9°C 49.2°F9.6°C 75% 9.6 mph S15.4 kmh S 23.3 mph37.5 kmh 29.80 in1009.1 mb 0.00 in0.0 mm 0.00 in0.0 mm 0.00 in0.0 mm
03:40 AM 57.0°F13.9°C 49.5°F9.7°C 76% 9.5 mph S15.3 kmh S 20.4 mph32.8 kmh 29.80 in1009.1 mb 0.00 in0.0 mm 0.00 in0.0 mm 0.00 in0.0 mm
03:50 AM 57.2°F14.0°C 49.3°F9.6°C 75% 8.8 mph S14.2 kmh S 21.1 mph34.0 kmh 29.80 in1009.1 mb 0.00 in0.0 mm 0.00 in0.0 mm 0.00 in0.0 mm
04:00 AM 57.4°F14.1°C 49.5°F9.7°C 75% 9.6 mph S15.4 kmh S 22.9 mph36.9 kmh 29.80 in1009.1 mb 0.00 in0.0 mm 0.00 in0.0 mm 0.00 in0.0 mm
04:10 AM 57.4°F14.1°C 49.5°F9.7°C 75% 9.5 mph S15.3 kmh S 20.8 mph33.5 kmh 29.80 in1009.1 mb 0.00 in0.0 mm 0.00 in0.0 mm 0.00 in0.0 mm
04:20 AM 57.4°F14.1°C 49.9°F9.9°C 76% 9.6 mph S15.4 kmh S 20.4 mph32.8 kmh 29.80 in1009.1 mb 0.00 in0.0 mm 0.00 in0.0 mm 0.00 in0.0 mm
04:30 AM 57.4°F14.1°C 49.5°F9.7°C 75% 10.5 mph S16.9 kmh S 24.7 mph39.8 kmh 29.80 in1009.1 mb 0.00 in0.0 mm 0.00 in0.0 mm 0.00 in0.0 mm
04:40 AM 57.6°F14.2°C 49.7°F9.8°C 75% 9.2 mph S14.8 kmh S 20.4 mph32.8 kmh 29.80 in1009.1 mb 0.00 in0.0 mm 0.00 in0.0 mm 0.00 in0.0 mm
04:50 AM 57.6°F14.2°C 50.0°F10.0°C 76% 11.1 mph S17.9 kmh S 30.1 mph48.4 kmh 29.80 in1009.1 mb 0.00 in0.0 mm 0.00 in0.0 mm 0.00 in0.0 mm
05:00 AM 57.7°F14.3°C 49.9°F9.9°C 75% 12.8 mph S20.6 kmh S 35.4 mph57.0 kmh 29.80 in1009.1 mb 0.00 in0.0 mm 0.00 in0.0 mm 0.00 in0.0 mm
05:10 AM 57.9°F14.4°C 49.7°F9.8°C 74% 12.2 mph SSW19.6 kmh SSW 31.1 mph50.1 kmh 29.80 in1009.1 mb 0.00 in0.0 mm 0.00 in0.0 mm 0.00 in0.0 mm
05:20 AM 57.9°F14.4°C 49.3°F9.6°C 73% 14.6 mph S23.5 kmh S 32.6 mph52.5 kmh 29.80 in1009.1 mb 0.00 in0.0 mm 0.00 in0.0 mm 0.00 in0.0 mm
05:30 AM 57.9°F14.4°C 48.9°F9.4°C 72% 11.5 mph S18.5 kmh S 26.8 mph43.1 kmh 29.80 in1009.1 mb 0.00 in0.0 mm 0.00 in0.0 mm 0.00 in0.0 mm
05:40 AM 57.7°F14.3°C 49.1°F9.5°C 73% 10.9 mph SSW17.5 kmh SSW 26.5 mph42.6 kmh 29.80 in1009.1 mb 0.00 in0.0 mm 0.00 in0.0 mm 0.00 in0.0 mm
05:50 AM 57.7°F14.3°C 49.5°F9.7°C 74% 10.8 mph S17.4 kmh S 28.3 mph45.5 kmh 29.77 in1008.1 mb 0.00 in0.0 mm 0.00 in0.0 mm 0.00 in0.0 mm
06:00 AM 58.3°F14.6°C 49.7°F9.8°C 73% 11.1 mph SSW17.9 kmh SSW 32.2 mph51.8 kmh 29.80 in1009.1 mb 0.00 in0.0 mm 0.00 in0.0 mm 0.00 in0.0 mm
06:10 AM 59.0°F15.0°C 49.6°F9.8°C 71% 13.8 mph S22.2 kmh S 31.9 mph51.3 kmh 29.80 in1009.1 mb 0.00 in0.0 mm 0.00 in0.0 mm 0.00 in0.0 mm
06:20 AM 58.6°F14.8°C 48.9°F9.4°C 70% 10.3 mph SSW16.6 kmh SSW 23.6 mph38.0 kmh 29.80 in1009.1 mb 0.00 in0.0 mm 0.00 in0.0 mm 0.00 in0.0 mm
06:30 AM 58.5°F14.7°C 49.1°F9.5°C 71% 13.4 mph SSW21.6 kmh SSW 43.7 mph70.3 kmh 29.80 in1009.1 mb 0.00 in0.0 mm 0.00 in0.0 mm 0.00 in0.0 mm
06:40 AM 58.3°F14.6°C 48.9°F9.4°C 71% 9.9 mph S15.9 kmh S 20.0 mph32.2 kmh 29.80 in1009.1 mb 0.00 in0.0 mm 0.00 in0.0 mm 0.00 in0.0 mm
06:50 AM 57.7°F14.3°C 49.5°F9.7°C 74% 9.7 mph S15.6 kmh S 35.1 mph56.5 kmh 29.80 in1009.1 mb 0.00 in0.0 mm 0.00 in0.0 mm 0.00 in0.0 mm
07:00 AM 57.2°F14.0°C 49.0°F9.4°C 74% 10.4 mph S16.7 kmh S 30.1 mph48.4 kmh 29.80 in1009.1 mb 0.00 in0.0 mm 0.00 in0.0 mm 0.00 in0.0 mm
07:10 AM 57.0°F13.9°C 49.2°F9.6°C 75% 10.4 mph S16.7 kmh S 26.5 mph42.6 kmh 29.80 in1009.1 mb 0.00 in0.0 mm 0.00 in0.0 mm 0.00 in0.0 mm
07:20 AM 57.7°F14.3°C 49.9°F9.9°C 75% 12.8 mph S20.6 kmh S 26.8 mph43.1 kmh 29.80 in1009.1 mb 0.00 in0.0 mm 0.00 in0.0 mm 0.00 in0.0 mm
07:30 AM 57.7°F14.3°C 49.5°F9.7°C 74% 12.0 mph S19.3 kmh S 28.6 mph46.0 kmh 29.83 in1010.2 mb 0.00 in0.0 mm 0.00 in0.0 mm 0.00 in0.0 mm
07:40 AM 57.7°F14.3°C 49.9°F9.9°C 75% 12.0 mph S19.3 kmh S 28.3 mph45.5 kmh 29.83 in1010.2 mb 0.00 in0.0 mm 0.00 in0.0 mm 0.00 in0.0 mm
07:50 AM 58.3°F14.6°C 50.0°F10.0°C 74% 12.1 mph S19.5 kmh S 26.8 mph43.1 kmh 29.83 in1010.2 mb 0.00 in0.0 mm 0.00 in0.0 mm 0.00 in0.0 mm
08:00 AM 58.5°F14.7°C 50.2°F10.1°C 74% 12.6 mph SSW20.3 kmh SSW 31.9 mph51.3 kmh 29.86 in1011.2 mb 0.00 in0.0 mm 0.00 in0.0 mm 0.00 in0.0 mm
08:10 AM 58.1°F14.5°C 49.9°F9.9°C 74% 11.4 mph SSW18.3 kmh SSW 27.6 mph44.4 kmh 29.86 in1011.2 mb 0.00 in0.0 mm 0.00 in0.0 mm 0.00 in0.0 mm
08:20 AM 58.1°F14.5°C 50.2°F10.1°C 75% 12.9 mph S20.8 kmh S 37.2 mph59.9 kmh 29.86 in1011.2 mb 0.00 in0.0 mm 0.00 in0.0 mm 0.00 in0.0 mm
08:30 AM 58.3°F14.6°C 50.7°F10.4°C 76% 12.7 mph SSW20.4 kmh SSW 28.3 mph45.5 kmh 29.86 in1011.2 mb 0.00 in0.0 mm 0.00 in0.0 mm 0.00 in0.0 mm
08:40 AM 58.5°F14.7°C 50.6°F10.3°C 75% 12.8 mph S20.6 kmh S 46.2 mph74.4 kmh 29.86 in1011.2 mb 0.00 in0.0 mm 0.00 in0.0 mm 0.00 in0.0 mm
08:50 AM 58.6°F14.8°C 50.4°F10.2°C 74% 14.2 mph S22.9 kmh S 32.9 mph52.9 kmh 29.86 in1011.2 mb 0.00 in0.0 mm 0.00 in0.0 mm 0.00 in0.0 mm
09:00 AM 59.0°F15.0°C 50.4°F10.2°C 73% 12.3 mph SSW19.8 kmh SSW 28.6 mph46.0 kmh 29.86 in1011.2 mb 0.00 in0.0 mm 0.00 in0.0 mm 0.00 in0.0 mm
09:10 AM 59.4°F15.2°C 50.7°F10.4°C 73% 11.0 mph S17.7 kmh S 31.5 mph50.7 kmh 29.86 in1011.2 mb 0.00 in0.0 mm 0.00 in0.0 mm 0.00 in0.0 mm
09:20 AM 61.0°F16.1°C 52.3°F11.3°C 73% 11.7 mph SSW18.8 kmh SSW 29.7 mph47.8 kmh 29.83 in1010.2 mb 0.00 in0.0 mm 0.00 in0.0 mm 0.00 in0.0 mm
09:30 AM 61.5°F16.4°C 52.0°F11.1°C 71% 13.5 mph SW21.7 kmh SW 28.3 mph45.5 kmh 29.86 in1011.2 mb 0.00 in0.0 mm 0.00 in0.0 mm 0.00 in0.0 mm
09:40 AM 60.4°F15.8°C 51.0°F10.6°C 71% 11.9 mph SSW19.2 kmh SSW 33.6 mph54.1 kmh 29.86 in1011.2 mb 0.00 in0.0 mm 0.00 in0.0 mm 0.00 in0.0 mm
09:50 AM 59.7°F15.4°C 51.0°F10.6°C 73% 12.5 mph SSW20.1 kmh SSW 35.1 mph56.5 kmh 29.89 in1012.2 mb 0.00 in0.0 mm 0.00 in0.0 mm 0.00 in0.0 mm
10:00 AM 59.9°F15.5°C 51.2°F10.7°C 73% 12.4 mph SSW20.0 kmh SSW 27.6 mph44.4 kmh 29.89 in1012.2 mb 0.00 in0.0 mm 0.00 in0.0 mm 0.00 in0.0 mm
10:10 AM 60.3°F15.7°C 51.9°F11.1°C 74% 9.5 mph S15.3 kmh S 32.9 mph52.9 kmh 29.89 in1012.2 mb 0.00 in0.0 mm 0.00 in0.0 mm 0.00 in0.0 mm
10:20 AM 60.1°F15.6°C 51.4°F10.8°C 73% 13.7 mph SW22.0 kmh SW 31.9 mph51.3 kmh 29.89 in1012.2 mb 0.00 in0.0 mm 0.00 in0.0 mm 0.00 in0.0 mm
10:30 AM 59.9°F15.5°C 51.2°F10.7°C 73% 13.2 mph SSW21.2 kmh SSW 37.2 mph59.9 kmh 29.89 in1012.2 mb 0.00 in0.0 mm 0.00 in0.0 mm 0.00 in0.0 mm
10:40 AM 60.1°F15.6°C 52.1°F11.2°C 75% 8.9 mph SW14.3 kmh SW 26.5 mph42.6 kmh 29.89 in1012.2 mb 0.00 in0.0 mm 0.00 in0.0 mm 0.00 in0.0 mm
10:50 AM 60.3°F15.7°C 51.6°F10.9°C 73% 11.6 mph SW18.7 kmh SW 26.8 mph43.1 kmh 29.89 in1012.2 mb 0.00 in0.0 mm 0.00 in0.0 mm 0.00 in0.0 mm
11:00 AM 60.3°F15.7°C 51.6°F10.9°C 73% 9.9 mph SSW15.9 kmh SSW 26.5 mph42.6 kmh 29.89 in1012.2 mb 0.00 in0.0 mm 0.00 in0.0 mm 0.00 in0.0 mm
11:10 AM 60.1°F15.6°C 51.4°F10.8°C 73% 12.7 mph SW20.4 kmh SW 28.3 mph45.5 kmh 29.89 in1012.2 mb 0.00 in0.0 mm 0.00 in0.0 mm 0.00 in0.0 mm
11:20 AM 60.8°F16.0°C 52.1°F11.2°C 73% 12.3 mph WSW19.8 kmh WSW 27.6 mph44.4 kmh 29.92 in1013.2 mb 0.00 in0.0 mm 0.00 in0.0 mm 0.00 in0.0 mm
11:30 AM 61.2°F16.2°C 51.7°F10.9°C 71% 11.9 mph WSW19.2 kmh WSW 27.6 mph44.4 kmh 29.92 in1013.2 mb 0.00 in0.0 mm 0.00 in0.0 mm 0.00 in0.0 mm
11:40 AM 61.7°F16.5°C 53.0°F11.7°C 73% 11.5 mph SW18.5 kmh SW 31.5 mph50.7 kmh 29.92 in1013.2 mb 0.00 in0.0 mm 0.00 in0.0 mm 0.00 in0.0 mm
11:50 AM 62.2°F16.8°C 53.1°F11.7°C 72% 11.8 mph WSW19.0 kmh WSW 23.3 mph37.5 kmh 29.92 in1013.2 mb 0.00 in0.0 mm 0.00 in0.0 mm 0.00 in0.0 mm
12:00 PM 62.6°F17.0°C 53.1°F11.7°C 71% 9.3 mph SW15.0 kmh SW 26.1 mph42.0 kmh 29.92 in1013.2 mb 0.00 in0.0 mm 0.00 in0.0 mm 0.00 in0.0 mm
12:10 PM 62.8°F17.1°C 52.5°F11.4°C 69% 11.6 mph WSW18.7 kmh WSW 26.1 mph42.0 kmh 29.92 in1013.2 mb 0.00 in0.0 mm 0.00 in0.0 mm 0.00 in0.0 mm
12:20 PM 62.8°F17.1°C 53.2°F11.8°C 71% 12.4 mph WSW20.0 kmh WSW 32.2 mph51.8 kmh 29.92 in1013.2 mb 0.00 in0.0 mm 0.00 in0.0 mm 0.00 in0.0 mm
12:30 PM 63.3°F17.4°C 53.8°F12.1°C 71% 9.6 mph SW15.4 kmh SW 27.2 mph43.8 kmh 29.92 in1013.2 mb 0.00 in0.0 mm 0.00 in0.0 mm 0.00 in0.0 mm
12:40 PM 63.3°F17.4°C 52.6°F11.4°C 68% 11.2 mph SW18.0 kmh SW 31.9 mph51.3 kmh 29.92 in1013.2 mb 0.00 in0.0 mm 0.00 in0.0 mm 0.00 in0.0 mm
12:50 PM 63.0°F17.2°C 51.8°F11.0°C 67% 12.3 mph SW19.8 kmh SW 30.4 mph48.9 kmh 29.92 in1013.2 mb 0.00 in0.0 mm 0.00 in0.0 mm 0.00 in0.0 mm
01:00 PM 63.0°F17.2°C 52.2°F11.2°C 68% 12.2 mph SSW19.6 kmh SSW 35.1 mph56.5 kmh 29.92 in1013.2 mb 0.00 in0.0 mm 0.00 in0.0 mm 0.00 in0.0 mm
01:10 PM 63.9°F17.7°C 53.9°F12.2°C 70% 9.2 mph SW14.8 kmh SW 24.7 mph39.8 kmh 29.92 in1013.2 mb 0.00 in0.0 mm 0.00 in0.0 mm 0.00 in0.0 mm
01:20 PM 63.7°F17.6°C 52.5°F11.4°C 67% 9.2 mph SW14.8 kmh SW 20.4 mph32.8 kmh 29.92 in1013.2 mb 0.00 in0.0 mm 0.00 in0.0 mm 0.00 in0.0 mm
01:30 PM 63.1°F17.3°C 52.0°F11.1°C 67% 8.7 mph SW14.0 kmh SW 19.3 mph31.1 kmh 29.92 in1013.2 mb 0.00 in0.0 mm 0.00 in0.0 mm 0.00 in0.0 mm
01:40 PM 63.5°F17.5°C 52.7°F11.5°C 68% 8.8 mph WSW14.2 kmh WSW 22.9 mph36.9 kmh 29.92 in1013.2 mb 0.00 in0.0 mm 0.00 in0.0 mm 0.00 in0.0 mm
01:50 PM 63.5°F17.5°C 51.9°F11.1°C 66% 9.5 mph SW15.3 kmh SW 21.8 mph35.1 kmh 29.95 in1014.2 mb 0.00 in0.0 mm 0.00 in0.0 mm 0.00 in0.0 mm
02:00 PM 63.7°F17.6°C 52.5°F11.4°C 67% 9.7 mph SSW15.6 kmh SSW 22.5 mph36.2 kmh 29.95 in1014.2 mb 0.00 in0.0 mm 0.00 in0.0 mm 0.00 in0.0 mm
02:10 PM 63.9°F17.7°C 52.3°F11.3°C 66% 8.6 mph SW13.8 kmh SW 21.1 mph34.0 kmh 29.95 in1014.2 mb 0.00 in0.0 mm 0.00 in0.0 mm 0.00 in0.0 mm
02:20 PM 63.9°F17.7°C 51.9°F11.1°C 65% 8.4 mph WSW13.5 kmh WSW 20.4 mph32.8 kmh 29.95 in1014.2 mb 0.00 in0.0 mm 0.00 in0.0 mm 0.00 in0.0 mm
02:30 PM 64.0°F17.8°C 52.9°F11.6°C 67% 8.1 mph SW13.0 kmh SW 22.9 mph36.9 kmh 29.95 in1014.2 mb 0.00 in0.0 mm 0.00 in0.0 mm 0.00 in0.0 mm
02:40 PM 64.0°F17.8°C 51.6°F10.9°C 64% 7.5 mph SSW12.1 kmh SSW 17.5 mph28.2 kmh 29.95 in1014.2 mb 0.00 in0.0 mm 0.00 in0.0 mm 0.00 in0.0 mm
02:50 PM 64.0°F17.8°C 52.0°F11.1°C 65% 7.6 mph SW12.2 kmh SW 19.0 mph30.6 kmh 29.98 in1015.2 mb 0.00 in0.0 mm 0.00 in0.0 mm 0.00 in0.0 mm
03:00 PM 63.9°F17.7°C 51.9°F11.1°C 65% 8.8 mph WSW14.2 kmh WSW 22.9 mph36.9 kmh 29.95 in1014.2 mb 0.00 in0.0 mm 0.00 in0.0 mm 0.00 in0.0 mm
03:10 PM 63.7°F17.6°C 51.7°F10.9°C 65% 8.5 mph WSW13.7 kmh WSW 22.2 mph35.7 kmh 29.95 in1014.2 mb 0.00 in0.0 mm 0.00 in0.0 mm 0.00 in0.0 mm
03:20 PM 63.7°F17.6°C 51.7°F10.9°C 65% 9.7 mph SW15.6 kmh SW 21.5 mph34.6 kmh 29.98 in1015.2 mb 0.00 in0.0 mm 0.00 in0.0 mm 0.00 in0.0 mm
03:30 PM 63.9°F17.7°C 51.9°F11.1°C 65% 8.5 mph SW13.7 kmh SW 17.2 mph27.7 kmh 29.98 in1015.2 mb 0.00 in0.0 mm 0.00 in0.0 mm 0.00 in0.0 mm
03:40 PM 63.9°F17.7°C 51.9°F11.1°C 65% 7.1 mph S11.4 kmh S 16.1 mph25.9 kmh 29.98 in1015.2 mb 0.00 in0.0 mm 0.00 in0.0 mm 0.00 in0.0 mm
03:50 PM 64.0°F17.8°C 51.2°F10.7°C 63% 7.1 mph SW11.4 kmh SW 19.0 mph30.6 kmh 29.98 in1015.2 mb 0.00 in0.0 mm 0.00 in0.0 mm 0.00 in0.0 mm
04:00 PM 64.0°F17.8°C 51.6°F10.9°C 64% 7.9 mph SSW12.7 kmh SSW 16.8 mph27.0 kmh 29.98 in1015.2 mb 0.00 in0.0 mm 0.00 in0.0 mm 0.00 in0.0 mm
04:10 PM 64.0°F17.8°C 51.6°F10.9°C 64% 6.7 mph SW10.8 kmh SW 19.3 mph31.1 kmh 29.98 in1015.2 mb 0.00 in0.0 mm 0.00 in0.0 mm 0.00 in0.0 mm
04:20 PM 63.9°F17.7°C 51.0°F10.6°C 63% 7.0 mph SW11.3 kmh SW 23.6 mph38.0 kmh 29.98 in1015.2 mb 0.00 in0.0 mm 0.00 in0.0 mm 0.00 in0.0 mm
04:30 PM 64.0°F17.8°C 51.6°F10.9°C 64% 7.5 mph SW12.1 kmh SW 16.1 mph25.9 kmh 29.98 in1015.2 mb 0.00 in0.0 mm 0.00 in0.0 mm 0.00 in0.0 mm
04:40 PM 64.2°F17.9°C 51.4°F10.8°C 63% 7.1 mph SW11.4 kmh SW 14.3 mph23.0 kmh 29.98 in1015.2 mb 0.00 in0.0 mm 0.00 in0.0 mm 0.00 in0.0 mm
04:50 PM 64.0°F17.8°C 50.8°F10.4°C 62% 7.0 mph SSW11.3 kmh SSW 20.4 mph32.8 kmh 29.98 in1015.2 mb 0.00 in0.0 mm 0.00 in0.0 mm 0.00 in0.0 mm
05:00 PM 63.9°F17.7°C 50.6°F10.3°C 62% 7.6 mph SW12.2 kmh SW 16.1 mph25.9 kmh 29.98 in1015.2 mb 0.00 in0.0 mm 0.00 in0.0 mm 0.00 in0.0 mm
05:10 PM 63.7°F17.6°C 50.4°F10.2°C 62% 7.6 mph WSW12.2 kmh WSW 17.5 mph28.2 kmh 29.98 in1015.2 mb 0.00 in0.0 mm 0.00 in0.0 mm 0.00 in0.0 mm
05:20 PM 63.9°F17.7°C 50.6°F10.3°C 62% 7.3 mph WSW11.7 kmh WSW 17.5 mph28.2 kmh 29.98 in1015.2 mb 0.00 in0.0 mm 0.00 in0.0 mm 0.00 in0.0 mm
05:30 PM 63.5°F17.5°C 49.8°F9.9°C 61% 6.4 mph SW10.3 kmh SW 16.5 mph26.6 kmh 29.98 in1015.2 mb 0.00 in0.0 mm 0.00 in0.0 mm 0.00 in0.0 mm
05:40 PM 63.5°F17.5°C 49.8°F9.9°C 61% 5.0 mph SSW8.0 kmh SSW 10.0 mph16.1 kmh 29.98 in1015.2 mb 0.00 in0.0 mm 0.00 in0.0 mm 0.00 in0.0 mm
05:50 PM 63.5°F17.5°C 50.2°F10.1°C 62% 4.4 mph SW7.1 kmh SW 11.8 mph19.0 kmh 29.98 in1015.2 mb 0.00 in0.0 mm 0.00 in0.0 mm 0.00 in0.0 mm
06:00 PM 63.7°F17.6°C 50.4°F10.2°C 62% 6.1 mph SW9.8 kmh SW 14.0 mph22.5 kmh 29.98 in1015.2 mb 0.00 in0.0 mm 0.00 in0.0 mm 0.00 in0.0 mm
06:10 PM 63.7°F17.6°C 50.0°F10.0°C 61% 4.3 mph SSW6.9 kmh SSW 10.4 mph16.7 kmh 29.98 in1015.2 mb 0.00 in0.0 mm 0.00 in0.0 mm 0.00 in0.0 mm
06:20 PM 63.7°F17.6°C 50.4°F10.2°C 62% 3.0 mph SSW4.8 kmh SSW 10.7 mph17.2 kmh 29.98 in1015.2 mb 0.00 in0.0 mm 0.00 in0.0 mm 0.00 in0.0 mm
06:30 PM 63.5°F17.5°C 50.2°F10.1°C 62% 4.3 mph SW6.9 kmh SW 11.5 mph18.5 kmh 29.98 in1015.2 mb 0.00 in0.0 mm 0.00 in0.0 mm 0.00 in0.0 mm
06:40 PM 63.3°F17.4°C 50.1°F10.1°C 62% 3.3 mph WSW5.3 kmh WSW 9.3 mph15.0 kmh 29.98 in1015.2 mb 0.00 in0.0 mm 0.00 in0.0 mm 0.00 in0.0 mm
06:50 PM 61.7°F16.5°C 49.4°F9.7°C 64% 4.9 mph SSW7.9 kmh SSW 10.4 mph16.7 kmh 29.98 in1015.2 mb 0.00 in0.0 mm 0.00 in0.0 mm 0.00 in0.0 mm
07:00 PM 60.4°F15.8°C 49.0°F9.4°C 66% 5.3 mph S8.5 kmh S 13.6 mph21.9 kmh 29.98 in1015.2 mb 0.00 in0.0 mm 0.00 in0.0 mm 0.00 in0.0 mm
07:10 PM 59.9°F15.5°C 49.3°F9.6°C 68% 4.1 mph S6.6 kmh S 9.7 mph15.6 kmh 29.98 in1015.2 mb 0.00 in0.0 mm 0.00 in0.0 mm 0.00 in0.0 mm
07:20 PM 59.4°F15.2°C 49.2°F9.6°C 69% 3.3 mph S5.3 kmh S 9.7 mph15.6 kmh 29.98 in1015.2 mb 0.00 in0.0 mm 0.00 in0.0 mm 0.00 in0.0 mm
07:30 PM 59.2°F15.1°C 49.4°F9.7°C 70% 5.1 mph S8.2 kmh S 11.1 mph17.9 kmh 29.98 in1015.2 mb 0.00 in0.0 mm 0.00 in0.0 mm 0.00 in0.0 mm
07:40 PM 59.0°F15.0°C 49.2°F9.6°C 70% 3.2 mph S5.1 kmh S 9.3 mph15.0 kmh 29.98 in1015.2 mb 0.00 in0.0 mm 0.00 in0.0 mm 0.00 in0.0 mm
07:50 PM 58.5°F14.7°C 49.5°F9.7°C 72% 2.2 mph S3.5 kmh S 7.5 mph12.1 kmh 29.95 in1014.2 mb 0.00 in0.0 mm 0.00 in0.0 mm 0.00 in0.0 mm
08:00 PM 58.3°F14.6°C 49.7°F9.8°C 73% 1.5 mph S2.4 kmh S 5.4 mph8.7 kmh 29.95 in1014.2 mb 0.00 in0.0 mm 0.00 in0.0 mm 0.00 in0.0 mm
08:10 PM 58.1°F14.5°C 49.5°F9.7°C 73% 2.9 mph S4.7 kmh S 7.5 mph12.1 kmh 29.95 in1014.2 mb 0.00 in0.0 mm 0.00 in0.0 mm 0.00 in0.0 mm
08:20 PM 57.7°F14.3°C 49.1°F9.5°C 73% 2.3 mph S3.7 kmh S 6.4 mph10.3 kmh 29.95 in1014.2 mb 0.00 in0.0 mm 0.00 in0.0 mm 0.00 in0.0 mm
08:30 PM 57.4°F14.1°C 49.2°F9.6°C 74% 2.5 mph S4.0 kmh S 6.8 mph10.9 kmh 29.98 in1015.2 mb 0.00 in0.0 mm 0.00 in0.0 mm 0.00 in0.0 mm
08:40 PM 57.0°F13.9°C 49.2°F9.6°C 75% 3.4 mph S5.5 kmh S 8.9 mph14.3 kmh 29.98 in1015.2 mb 0.00 in0.0 mm 0.00 in0.0 mm 0.00 in0.0 mm
08:50 PM 56.8°F13.8°C 49.4°F9.7°C 76% 2.0 mph S3.2 kmh S 6.8 mph10.9 kmh 29.98 in1015.2 mb 0.00 in0.0 mm 0.00 in0.0 mm 0.00 in0.0 mm
09:00 PM 56.8°F13.8°C 49.7°F9.8°C 77% 3.1 mph S5.0 kmh S 8.6 mph13.8 kmh 29.98 in1015.2 mb 0.00 in0.0 mm 0.00 in0.0 mm 0.00 in0.0 mm
09:10 PM 56.5°F13.6°C 49.7°F9.8°C 78% 4.0 mph S6.4 kmh S 9.7 mph15.6 kmh 29.98 in1015.2 mb 0.00 in0.0 mm 0.00 in0.0 mm 0.00 in0.0 mm
09:20 PM 56.3°F13.5°C 49.9°F9.9°C 79% 3.0 mph S4.8 kmh S 7.5 mph12.1 kmh 29.98 in1015.2 mb 0.00 in0.0 mm 0.00 in0.0 mm 0.00 in0.0 mm
09:30 PM 56.1°F13.4°C 49.7°F9.8°C 79% 2.9 mph S4.7 kmh S 10.0 mph16.1 kmh 29.98 in1015.2 mb 0.00 in0.0 mm 0.00 in0.0 mm 0.00 in0.0 mm
09:40 PM 55.8°F13.2°C 49.3°F9.6°C 79% 2.5 mph S4.0 kmh S 7.5 mph12.1 kmh 29.98 in1015.2 mb 0.00 in0.0 mm 0.00 in0.0 mm 0.00 in0.0 mm
09:50 PM 55.6°F13.1°C 49.2°F9.6°C 79% 2.9 mph S4.7 kmh S 6.8 mph10.9 kmh 29.98 in1015.2 mb 0.00 in0.0 mm 0.00 in0.0 mm 0.00 in0.0 mm
10:00 PM 55.4°F13.0°C 49.3°F9.6°C 80% 1.7 mph S2.7 kmh S 6.8 mph10.9 kmh 29.98 in1015.2 mb 0.00 in0.0 mm 0.00 in0.0 mm 0.00 in0.0 mm
10:10 PM 55.4°F13.0°C 49.3°F9.6°C 80% 1.4 mph S2.3 kmh S 6.8 mph10.9 kmh 29.98 in1015.2 mb 0.00 in0.0 mm 0.00 in0.0 mm 0.00 in0.0 mm
10:20 PM 55.4°F13.0°C 49.3°F9.6°C 80% 1.7 mph S2.7 kmh S 10.0 mph16.1 kmh 29.98 in1015.2 mb 0.00 in0.0 mm 0.00 in0.0 mm 0.00 in0.0 mm
10:30 PM 55.4°F13.0°C 49.3°F9.6°C 80% 1.8 mph S2.9 kmh S 6.8 mph10.9 kmh 29.98 in1015.2 mb 0.00 in0.0 mm 0.00 in0.0 mm 0.00 in0.0 mm
10:40 PM 55.2°F12.9°C 49.2°F9.6°C 80% 0.3 mph S0.5 kmh S 5.0 mph8.0 kmh 29.98 in1015.2 mb 0.00 in0.0 mm 0.00 in0.0 mm 0.00 in0.0 mm
10:50 PM 54.9°F12.7°C 48.8°F9.3°C 80% 0.5 mph SSW0.8 kmh SSW 5.0 mph8.0 kmh 29.98 in1015.2 mb 0.00 in0.0 mm 0.00 in0.0 mm 0.00 in0.0 mm
11:00 PM 54.7°F12.6°C 48.6°F9.2°C 80% 1.6 mph S2.6 kmh S 6.1 mph9.8 kmh 30.01 in1016.3 mb 0.00 in0.0 mm 0.00 in0.0 mm 0.00 in0.0 mm
11:10 PM 54.5°F12.5°C 48.5°F9.2°C 80% 0.5 mph S0.8 kmh S 5.0 mph8.0 kmh 30.01 in1016.3 mb 0.00 in0.0 mm 0.00 in0.0 mm 0.00 in0.0 mm
11:20 PM 54.3°F12.4°C 48.6°F9.2°C 81% 0.9 mph S1.4 kmh S 5.7 mph9.2 kmh 29.98 in1015.2 mb 0.00 in0.0 mm 0.00 in0.0 mm 0.00 in0.0 mm
11:30 PM 54.1°F12.3°C 48.4°F9.1°C 81% 0.4 mph S0.6 kmh S 4.7 mph7.6 kmh 29.98 in1015.2 mb 0.00 in0.0 mm 0.00 in0.0 mm 0.00 in0.0 mm
11:40 PM 53.8°F12.1°C 48.1°F8.9°C 81% 0.1 mph S0.2 kmh S 1.4 mph2.3 kmh 29.98 in1015.2 mb 0.00 in0.0 mm 0.00 in0.0 mm 0.00 in0.0 mm
11:50 PM 53.4°F11.9°C 47.7°F8.7°C 81% Calm Calm -- 29.98 in1015.2 mb 0.00 in0.0 mm 0.00 in0.0 mm 0.00 in0.0 mm